createdAt,value
2022-09-01T00:00:30.136Z,6.13
2022-09-01T00:02:58.538Z,5.30
2022-09-01T00:05:27.207Z,5.07
2022-09-01T00:07:55.645Z,4.65
2022-09-01T00:10:24.014Z,5.32
2022-09-01T00:12:52.614Z,5.50
2022-09-01T00:15:22.489Z,5.90
2022-09-01T00:17:50.774Z,6.03
2022-09-01T00:20:20.777Z,5.35
2022-09-01T00:22:49.712Z,5.80
2022-09-01T00:25:20.442Z,5.47
2022-09-01T00:27:49.371Z,5.60
2022-09-01T00:30:17.914Z,6.10
2022-09-01T00:32:47.769Z,5.70
2022-09-01T00:35:16.629Z,5.38
2022-09-01T00:37:45.071Z,6.72
2022-09-01T00:40:14.749Z,6.85
2022-09-01T00:42:44.617Z,7.07
2022-09-01T00:45:13.401Z,7.13
2022-09-01T00:47:41.848Z,7.07
2022-09-01T00:50:14.485Z,6.85
2022-09-01T00:52:44.805Z,6.82
2022-09-01T00:55:14.760Z,6.88
2022-09-01T00:57:43.647Z,6.60
2022-09-01T01:00:13.574Z,6.93
2022-09-01T01:02:42.758Z,6.97
2022-09-01T01:05:15.230Z,6.15
2022-09-01T01:07:45.895Z,6.53
2022-09-01T01:10:17.250Z,7.53
2022-09-01T01:12:46.090Z,6.97
2022-09-01T01:15:14.754Z,8.18
2022-09-01T01:17:43.048Z,7.80
2022-09-01T01:20:32.638Z,8.20
2022-09-01T01:23:10.409Z,6.93
2022-09-01T01:25:42.293Z,6.78
2022-09-01T01:28:13.907Z,8.27
2022-09-01T01:30:43.605Z,7.88
2022-09-01T01:33:12.329Z,7.20
2022-09-01T01:35:41.990Z,7.72
2022-09-01T01:38:11.253Z,7.40
2022-09-01T01:40:41.274Z,7.45
2022-09-01T01:43:12.237Z,8.40
2022-09-01T01:45:40.737Z,7.90
2022-09-01T01:48:10.627Z,7.05
2022-09-01T01:50:39.842Z,8.20
2022-09-01T01:53:13.793Z,7.22
2022-09-01T01:55:44.129Z,8.02
2022-09-01T01:58:15.027Z,7.55
2022-09-01T02:00:46.131Z,8.10
2022-09-01T02:03:45.768Z,8.10
2022-09-01T02:06:14.042Z,7.78
2022-09-01T02:08:43.761Z,8.50
2022-09-01T02:11:13.735Z,8.35
2022-09-01T02:13:42.161Z,8.80
2022-09-01T02:16:13.129Z,9.13
2022-09-01T02:18:44.351Z,8.95
2022-09-01T02:21:18.508Z,9.23
2022-09-01T02:23:48.445Z,9.10
2022-09-01T02:26:19.015Z,8.93
2022-09-01T02:28:54.771Z,9.75
2022-09-01T02:31:28.139Z,9.45
2022-09-01T02:33:57.620Z,9.38
2022-09-01T02:36:26.776Z,8.80
2022-09-01T02:38:56.455Z,9.35
2022-09-01T02:41:29.292Z,8.45
2022-09-01T02:44:02.402Z,7.13
2022-09-01T02:46:31.491Z,8.27
2022-09-01T02:49:00.860Z,8.13
2022-09-01T02:51:29.645Z,8.20
2022-09-01T02:53:58.886Z,8.45
2022-09-01T02:56:28.938Z,7.95
2022-09-01T02:58:57.460Z,8.07
2022-09-01T03:01:29.322Z,10.60
2022-09-01T03:03:59.772Z,9.77
2022-09-01T03:06:28.229Z,9.93
2022-09-01T03:09:00.332Z,9.93
2022-09-01T03:11:31.007Z,10.43
2022-09-01T03:14:00.048Z,10.00
2022-09-01T03:16:30.636Z,10.32
2022-09-01T03:18:59.701Z,9.27
2022-09-01T03:21:29.595Z,9.90
2022-09-01T03:23:58.326Z,9.32
2022-09-01T03:26:27.356Z,8.88
2022-09-01T03:28:58.292Z,8.93
2022-09-01T03:31:30.951Z,9.45
2022-09-01T03:34:03.417Z,8.93
2022-09-01T03:36:35.586Z,9.32
2022-09-01T03:39:04.240Z,9.27
2022-09-01T03:41:33.906Z,9.50
2022-09-01T03:44:03.756Z,9.60
2022-09-01T03:46:36.855Z,9.48
2022-09-01T03:49:07.489Z,10.10
2022-09-01T03:51:40.546Z,9.55
2022-09-01T03:54:10.450Z,9.32
2022-09-01T03:56:41.866Z,10.02
2022-09-01T03:59:17.767Z,8.73
2022-09-01T04:01:48.679Z,7.93
2022-09-01T04:04:17.676Z,8.38
2022-09-01T04:06:49.365Z,9.45
2022-09-01T04:09:17.836Z,8.10
2022-09-01T04:11:47.052Z,8.18
2022-09-01T04:14:18.518Z,10.05
2022-09-01T04:17:06.792Z,9.48
2022-09-01T04:19:37.176Z,9.18
2022-09-01T04:22:07.899Z,8.40
2022-09-01T04:24:45.174Z,9.18
2022-09-01T04:27:18.235Z,8.77
2022-09-01T04:29:48.617Z,8.18
2022-09-01T04:32:17.188Z,8.85
2022-09-01T04:34:52.131Z,8.52
2022-09-01T04:37:21.747Z,8.38
2022-09-01T04:39:58.551Z,8.95
2022-09-01T04:42:29.878Z,8.10
2022-09-01T04:45:05.063Z,8.55
2022-09-01T04:47:42.216Z,8.98
2022-09-01T04:50:17.437Z,8.73
2022-09-01T04:53:07.366Z,9.10
2022-09-01T04:55:50.066Z,9.15
2022-09-01T04:58:22.111Z,8.98
2022-09-01T05:00:53.119Z,10.88
2022-09-01T05:03:24.147Z,9.20
2022-09-01T05:06:08.966Z,9.50
2022-09-01T05:08:38.331Z,9.30
2022-09-01T05:11:11.856Z,8.55
2022-09-01T05:13:45.501Z,9.18
2022-09-01T05:16:24.069Z,8.75
2022-09-01T05:18:56.977Z,8.35
2022-09-01T05:21:28.357Z,9.32
2022-09-01T05:23:57.212Z,8.30
2022-09-01T05:26:26.288Z,8.93
2022-09-01T05:28:56.191Z,9.07
2022-09-01T05:31:28.554Z,8.63
2022-09-01T05:33:58.286Z,8.32
2022-09-01T05:36:26.965Z,8.15
2022-09-01T05:38:59.016Z,8.07
2022-09-01T05:41:28.539Z,7.70
2022-09-01T05:44:00.638Z,7.18
2022-09-01T05:46:31.820Z,7.40
2022-09-01T05:49:00.471Z,6.35
2022-09-01T05:51:44.344Z,6.97
2022-09-01T05:54:14.512Z,6.93
2022-09-01T05:56:44.820Z,6.00
2022-09-01T05:59:26.240Z,6.22
2022-09-01T06:02:09.396Z,6.32
2022-09-01T06:04:41.251Z,5.88
2022-09-01T06:07:16.280Z,6.03
2022-09-01T06:09:49.884Z,6.50
2022-09-01T06:12:23.896Z,5.90
2022-09-01T06:14:54.146Z,5.63
2022-09-01T06:17:25.991Z,4.93
2022-09-01T06:19:57.447Z,5.10
2022-09-01T06:22:26.634Z,5.28
2022-09-01T06:25:01.026Z,4.75
2022-09-01T06:27:34.006Z,5.45
2022-09-01T06:30:14.953Z,4.10
2022-09-01T06:32:51.529Z,4.00
2022-09-01T06:35:20.105Z,4.18
2022-09-01T06:37:49.796Z,4.35
2022-09-01T06:40:35.498Z,3.88
2022-09-01T06:43:08.032Z,3.80
2022-09-01T06:45:42.042Z,3.65
2022-09-01T06:48:17.850Z,3.13
2022-09-01T06:53:39.019Z,3.15
2022-09-01T06:56:11.151Z,3.08
2022-09-01T06:58:41.819Z,2.20
2022-09-01T07:01:14.643Z,2.53
2022-09-01T07:03:45.033Z,2.80
2022-09-01T07:09:20.435Z,2.70
2022-09-01T07:12:28.924Z,2.33
2022-09-01T07:17:50.159Z,2.30
2022-09-01T07:20:23.512Z,1.85
2022-09-01T07:23:08.140Z,2.83
2022-09-01T07:26:01.187Z,2.13
2022-09-01T07:28:37.006Z,1.50
2022-09-01T07:39:48.651Z,1.52
2022-09-01T07:45:58.824Z,1.25
2022-09-01T07:49:01.770Z,1.23
2022-09-01T07:51:36.908Z,1.05
2022-09-01T07:54:07.849Z,1.50
2022-09-01T07:56:40.213Z,0.90
2022-09-01T07:59:15.309Z,0.93
2022-09-01T08:01:52.601Z,1.00
2022-09-01T08:04:23.109Z,1.20
2022-09-01T08:06:53.182Z,1.00
2022-09-01T08:09:35.131Z,1.05
2022-09-01T08:12:09.360Z,1.08
2022-09-01T08:15:12.630Z,1.15
2022-09-01T08:17:57.807Z,0.85
2022-09-01T08:20:30.473Z,0.82
2022-09-01T08:23:10.817Z,1.00
2022-09-01T08:25:44.057Z,0.70
2022-09-01T08:28:12.696Z,0.98
2022-09-01T08:30:49.057Z,0.88
2022-09-01T08:33:21.570Z,0.70
2022-09-01T08:35:50.801Z,0.85
2022-09-01T08:38:20.495Z,0.50
2022-09-01T08:40:57.225Z,1.02
2022-09-01T08:43:44.444Z,1.00
2022-09-01T08:46:17.785Z,0.90
2022-09-01T08:49:24.320Z,0.60
2022-09-01T08:52:03.431Z,0.90
2022-09-01T08:54:38.629Z,0.98
2022-09-01T08:57:12.029Z,1.33
2022-09-01T08:59:58.532Z,0.80
2022-09-01T09:02:46.500Z,0.98
2022-09-01T09:05:36.650Z,0.90
2022-09-01T09:08:29.616Z,0.95
2022-09-01T09:11:05.447Z,0.80
2022-09-01T09:13:44.365Z,0.60
2022-09-01T09:16:19.955Z,1.02
2022-09-01T09:18:55.983Z,0.80
2022-09-01T09:21:30.027Z,0.90
2022-09-01T09:24:04.903Z,0.63
2022-09-01T09:26:48.809Z,0.77
2022-09-01T09:29:18.687Z,0.75
2022-09-01T09:31:49.888Z,0.82
2022-09-01T09:34:33.290Z,0.68
2022-09-01T09:37:23.215Z,0.70
2022-09-01T09:40:15.222Z,0.98
2022-09-01T09:43:01.687Z,0.93
2022-09-01T09:45:34.580Z,0.70
2022-09-01T09:48:07.604Z,0.80
2022-09-01T09:50:41.142Z,0.80
2022-09-01T09:53:28.285Z,0.80
2022-09-01T09:56:00.692Z,1.33
2022-09-01T09:58:37.101Z,0.80
2022-09-01T10:01:15.314Z,0.65
2022-09-01T10:03:49.063Z,0.70
2022-09-01T10:06:34.519Z,1.60
2022-09-01T10:09:05.059Z,1.23
2022-09-01T10:11:41.252Z,1.70
2022-09-01T10:14:23.585Z,1.70
2022-09-01T10:17:11.325Z,1.23
2022-09-01T10:19:42.225Z,2.33
2022-09-01T10:22:11.239Z,2.25
2022-09-01T10:24:45.385Z,1.90
2022-09-01T10:27:19.968Z,2.92
2022-09-01T10:30:12.202Z,2.10
2022-09-01T10:32:50.718Z,2.10
2022-09-01T10:35:24.553Z,1.92
2022-09-01T10:37:53.644Z,2.22
2022-09-01T10:40:43.524Z,1.80
2022-09-01T10:43:41.581Z,2.13
2022-09-01T10:46:49.446Z,1.60
2022-09-01T10:49:58.804Z,1.55
2022-09-01T10:52:58.566Z,1.67
2022-09-01T10:55:32.578Z,1.98
2022-09-01T11:02:34.930Z,1.40
2022-09-01T11:05:19.825Z,1.52
2022-09-01T11:08:25.354Z,1.58
2022-09-01T11:10:47.702Z,1.38
2022-09-01T11:13:32.835Z,1.15
2022-09-01T11:16:48.130Z,1.20
2022-09-01T11:19:44.684Z,1.37
2022-09-01T11:22:22.246Z,1.08
2022-09-01T11:25:00.228Z,1.48
2022-09-01T11:27:58.339Z,1.55
2022-09-01T11:30:51.910Z,1.42
2022-09-01T11:33:42.070Z,1.00
2022-09-01T11:36:20.114Z,1.27
2022-09-01T11:38:52.619Z,1.33
2022-09-01T11:41:26.329Z,1.20
2022-09-01T11:44:01.071Z,1.00
2022-09-01T11:46:34.349Z,0.82
2022-09-01T11:49:08.091Z,0.82
2022-09-01T11:51:46.839Z,0.93
2022-09-01T11:54:16.637Z,0.98
2022-09-01T11:56:44.694Z,0.95
2022-09-01T11:59:14.002Z,1.20
2022-09-01T12:01:42.238Z,0.70
2022-09-01T12:04:23.335Z,1.10
2022-09-01T12:07:01.884Z,0.80
2022-09-01T12:09:36.088Z,0.93
2022-09-01T12:12:05.934Z,0.73
2022-09-01T12:15:02.126Z,0.73
2022-09-01T12:17:23.919Z,1.10
2022-09-01T12:19:51.983Z,0.80
2022-09-01T12:22:22.571Z,1.15
2022-09-01T12:24:52.485Z,1.20
2022-09-01T12:27:23.185Z,0.80
2022-09-01T12:29:53.344Z,0.90
2022-09-01T12:32:21.753Z,1.00
2022-09-01T12:35:05.594Z,0.90
2022-09-01T12:37:37.435Z,0.75
2022-09-01T12:40:07.615Z,0.73
2022-09-01T12:42:41.453Z,1.00
2022-09-01T12:45:14.717Z,1.13
2022-09-01T12:47:52.013Z,1.10
2022-09-01T12:50:43.648Z,1.00
2022-09-01T12:53:22.955Z,0.88
2022-09-01T12:56:20.151Z,0.80
2022-09-01T12:58:52.291Z,0.90
2022-09-01T13:01:31.101Z,0.88
2022-09-01T13:04:15.983Z,0.70
2022-09-01T13:06:44.391Z,1.35
2022-09-01T13:09:12.433Z,1.10
2022-09-01T13:14:31.763Z,1.30
2022-09-01T13:17:01.256Z,0.98
2022-09-01T13:19:30.466Z,1.10
2022-09-01T13:21:58.868Z,1.17
2022-09-01T13:24:30.406Z,1.20
2022-09-01T13:29:48.224Z,1.05
2022-09-01T13:32:21.701Z,1.10
2022-09-01T13:34:52.355Z,1.38
2022-09-01T13:37:21.805Z,1.20
2022-09-01T13:39:50.537Z,1.00
2022-09-01T13:42:19.372Z,1.02
2022-09-01T13:44:52.346Z,0.75
2022-09-01T13:47:29.885Z,1.38
2022-09-01T13:50:08.362Z,1.20
2022-09-01T13:52:37.915Z,1.25
2022-09-01T13:55:06.895Z,1.25
2022-09-01T13:57:36.006Z,0.90
2022-09-01T14:00:07.731Z,0.90
2022-09-01T14:02:40.096Z,1.17
2022-09-01T14:05:08.969Z,1.02
2022-09-01T14:07:37.183Z,1.10
2022-09-01T14:10:07.357Z,0.98
2022-09-01T14:12:35.565Z,1.10
2022-09-01T14:15:13.554Z,1.08
2022-09-01T14:17:46.234Z,1.10
2022-09-01T14:20:18.350Z,2.67
2022-09-01T14:22:46.953Z,2.22
2022-09-01T14:25:16.037Z,1.60
2022-09-01T14:27:44.753Z,1.10
2022-09-01T14:30:16.408Z,2.70
2022-09-01T14:32:46.038Z,1.50
2022-09-01T14:35:15.048Z,1.20
2022-09-01T14:37:45.664Z,2.55
2022-09-01T14:40:16.809Z,1.95
2022-09-01T14:42:49.431Z,2.05
2022-09-01T14:45:18.694Z,1.30
2022-09-01T14:47:48.810Z,1.17
2022-09-01T14:50:21.990Z,1.20
2022-09-01T14:52:53.933Z,0.90
2022-09-01T14:55:23.150Z,1.10
2022-09-01T14:57:51.450Z,1.38
2022-09-01T15:00:20.135Z,1.05
2022-09-01T15:02:50.208Z,0.85
2022-09-01T15:05:18.577Z,0.90
2022-09-01T15:07:47.201Z,1.10
2022-09-01T15:10:24.589Z,0.90
2022-09-01T15:12:54.391Z,0.93
2022-09-01T15:15:22.683Z,1.00
2022-09-01T15:17:52.086Z,0.85
2022-09-01T15:20:37.479Z,0.80
2022-09-01T15:23:05.796Z,0.97
2022-09-01T15:25:33.897Z,0.98
2022-09-01T15:28:01.969Z,1.10
2022-09-01T15:30:30.380Z,0.98
2022-09-01T15:33:00.389Z,0.82
2022-09-01T15:35:29.649Z,1.23
2022-09-01T15:37:58.135Z,1.23
2022-09-01T15:40:28.178Z,1.30
2022-09-01T15:42:58.777Z,1.38
2022-09-01T15:45:31.480Z,1.20
2022-09-01T15:48:01.049Z,1.25
2022-09-01T15:50:29.667Z,0.90
2022-09-01T15:53:01.608Z,0.90
2022-09-01T15:55:32.564Z,1.00
2022-09-01T15:58:00.779Z,0.82
2022-09-01T16:00:30.330Z,0.95
2022-09-01T16:03:01.808Z,1.27
2022-09-01T16:05:32.753Z,1.40
2022-09-01T16:08:01.892Z,0.95
2022-09-01T16:10:33.665Z,1.10
2022-09-01T16:13:04.910Z,1.60
2022-09-01T16:15:35.309Z,1.10
2022-09-01T16:18:18.254Z,1.70
2022-09-01T16:21:00.105Z,1.17
2022-09-01T16:23:35.173Z,1.20
2022-09-01T16:26:03.257Z,1.63
2022-09-01T16:28:35.828Z,1.02
2022-09-01T16:31:08.938Z,0.90
2022-09-01T16:36:25.530Z,1.23
2022-09-01T16:39:00.265Z,1.20
2022-09-01T16:41:43.971Z,1.10
2022-09-01T16:44:32.799Z,1.30
2022-09-01T16:47:09.977Z,1.10
2022-09-01T16:49:46.133Z,1.05
2022-09-01T16:52:21.736Z,1.13
2022-09-01T16:55:02.756Z,1.20
2022-09-01T16:57:41.408Z,1.30
2022-09-01T17:00:14.140Z,1.10
2022-09-01T17:02:52.756Z,1.40
2022-09-01T17:05:26.108Z,1.10
2022-09-01T17:08:07.804Z,1.05
2022-09-01T17:10:42.195Z,1.05
2022-09-01T17:13:20.469Z,1.10
2022-09-01T17:15:56.146Z,1.10
2022-09-01T17:18:33.753Z,0.73
2022-09-01T17:21:11.965Z,0.90
2022-09-01T17:23:51.309Z,1.00
2022-09-01T17:26:25.749Z,0.80
2022-09-01T17:28:56.506Z,1.52
2022-09-01T17:31:42.981Z,1.05
2022-09-01T17:34:23.983Z,1.20
2022-09-01T17:37:06.425Z,1.15
2022-09-01T17:39:45.493Z,1.15
2022-09-01T17:42:25.060Z,1.50
2022-09-01T17:44:58.687Z,1.73
2022-09-01T17:47:37.103Z,2.00
2022-09-01T17:50:14.178Z,1.83
2022-09-01T17:52:55.012Z,1.83
2022-09-01T17:55:42.141Z,1.48
2022-09-01T17:58:19.570Z,1.50
2022-09-01T18:00:54.664Z,1.40
2022-09-01T18:03:46.620Z,1.47
2022-09-01T18:06:28.208Z,1.25
2022-09-01T18:08:59.152Z,1.30
2022-09-01T18:11:36.619Z,1.33
2022-09-01T18:14:09.215Z,1.80
2022-09-01T18:16:44.395Z,1.65
2022-09-01T18:19:17.954Z,1.25
2022-09-01T18:21:53.008Z,1.48
2022-09-01T18:24:26.291Z,1.60
2022-09-01T18:26:55.662Z,1.40
2022-09-01T18:29:28.428Z,1.40
2022-09-01T18:32:18.152Z,1.33
2022-09-01T18:35:08.059Z,1.83
2022-09-01T18:37:47.257Z,1.45
2022-09-01T18:40:22.499Z,1.70
2022-09-01T18:43:01.643Z,1.50
2022-09-01T18:45:38.517Z,2.13
2022-09-01T18:48:18.139Z,2.20
2022-09-01T18:50:53.268Z,2.30
2022-09-01T18:53:30.575Z,2.42
2022-09-01T18:56:07.083Z,4.47
2022-09-01T18:58:48.838Z,5.18
2022-09-01T19:01:23.947Z,4.40
2022-09-01T19:03:59.027Z,2.90
2022-09-01T19:06:35.818Z,1.70
2022-09-01T19:09:16.936Z,1.50
2022-09-01T19:11:55.940Z,1.98
2022-09-01T19:14:32.623Z,2.03
2022-09-01T19:17:16.285Z,1.52
2022-09-01T19:19:49.184Z,1.83
2022-09-01T19:22:20.564Z,1.55
2022-09-01T19:24:51.906Z,1.60
2022-09-01T19:27:25.370Z,1.40
2022-09-01T19:29:58.811Z,1.77
2022-09-01T19:32:29.683Z,1.73
2022-09-01T19:34:59.918Z,1.60
2022-09-01T19:37:28.006Z,1.98
2022-09-01T19:39:56.541Z,1.63
2022-09-01T19:42:29.770Z,1.80
2022-09-01T19:45:07.497Z,2.50
2022-09-01T19:47:42.969Z,2.20
2022-09-01T19:50:17.705Z,1.92
2022-09-01T19:52:55.170Z,1.98
2022-09-01T19:55:31.502Z,2.17
2022-09-01T19:58:04.317Z,2.25
2022-09-01T20:00:41.947Z,2.30
2022-09-01T20:03:14.053Z,2.28
2022-09-01T20:05:46.624Z,1.73
2022-09-01T20:08:24.378Z,1.90
2022-09-01T20:10:58.862Z,2.20
2022-09-01T20:14:03.844Z,2.33
2022-09-01T20:16:38.486Z,2.92
2022-09-01T20:19:11.531Z,3.13
2022-09-01T20:21:44.187Z,2.45
2022-09-01T20:24:19.656Z,2.28
2022-09-01T20:27:00.152Z,2.90
2022-09-01T20:29:37.680Z,2.72
2022-09-01T20:32:08.014Z,2.70
2022-09-01T20:34:44.653Z,2.40
2022-09-01T20:37:19.191Z,2.70
2022-09-01T20:42:35.827Z,2.58
2022-09-01T20:45:12.142Z,2.70
2022-09-01T20:47:42.925Z,2.78
2022-09-01T20:50:14.655Z,3.10
2022-09-01T20:52:56.933Z,2.90
2022-09-01T20:55:28.245Z,2.22
2022-09-01T20:58:02.648Z,2.53
2022-09-01T21:00:35.010Z,2.92
2022-09-01T21:03:18.262Z,3.55
2022-09-01T21:05:55.730Z,2.92
2022-09-01T21:08:38.751Z,3.30
2022-09-01T21:11:34.346Z,3.03
2022-09-01T21:14:13.960Z,3.10
2022-09-01T21:16:55.424Z,3.10
2022-09-01T21:19:34.933Z,2.45
2022-09-01T21:22:07.522Z,2.72
2022-09-01T21:24:36.556Z,3.28
2022-09-01T21:27:08.611Z,3.20
2022-09-01T21:29:45.356Z,3.47
2022-09-01T21:32:13.869Z,3.42
2022-09-01T21:34:43.774Z,3.25
2022-09-01T21:37:12.095Z,3.60
2022-09-01T21:39:40.453Z,3.35
2022-09-01T21:42:10.408Z,3.13
2022-09-01T21:44:38.701Z,3.17
2022-09-01T21:47:07.166Z,3.20
2022-09-01T21:49:35.506Z,3.00
2022-09-01T21:52:05.933Z,3.17
2022-09-01T21:54:34.564Z,3.55
2022-09-01T21:57:03.098Z,4.03
2022-09-01T21:59:31.497Z,4.35
2022-09-01T22:02:00.683Z,3.78
2022-09-01T22:04:29.465Z,3.90
2022-09-01T22:06:57.819Z,3.67
2022-09-01T22:09:27.731Z,3.78
2022-09-01T22:11:56.670Z,3.08
2022-09-01T22:14:26.456Z,3.13
2022-09-01T22:16:55.148Z,3.67
2022-09-01T22:19:23.625Z,3.60
2022-09-01T22:21:52.417Z,3.80
2022-09-01T22:24:20.827Z,3.90
2022-09-01T22:26:50.536Z,3.65
2022-09-01T22:29:19.073Z,3.53
2022-09-01T22:31:47.431Z,3.50
2022-09-01T22:34:15.769Z,4.13
2022-09-01T22:36:45.514Z,4.60
2022-09-01T22:39:14.322Z,3.72
2022-09-01T22:41:43.243Z,4.07
2022-09-01T22:44:13.370Z,4.20
2022-09-01T22:46:41.949Z,4.32
2022-09-01T22:49:10.794Z,3.78
2022-09-01T22:51:39.677Z,4.35
2022-09-01T22:54:08.497Z,4.43
2022-09-01T22:56:39.055Z,4.53
2022-09-01T22:59:09.351Z,4.00
2022-09-01T23:01:41.999Z,3.83
2022-09-01T23:04:11.068Z,3.65
2022-09-01T23:06:41.346Z,3.80
2022-09-01T23:09:09.795Z,4.13
2022-09-01T23:11:38.066Z,3.97
2022-09-01T23:14:06.515Z,4.22
2022-09-01T23:16:34.950Z,4.72
2022-09-01T23:19:05.634Z,4.25
2022-09-01T23:21:34.822Z,4.25
2022-09-01T23:24:03.745Z,4.20
2022-09-01T23:26:32.855Z,4.03
2022-09-01T23:29:01.444Z,4.28
2022-09-01T23:31:31.436Z,4.93
2022-09-01T23:33:59.923Z,4.18
2022-09-01T23:36:30.376Z,4.50
2022-09-01T23:38:58.870Z,4.30
2022-09-01T23:41:29.351Z,4.60
2022-09-01T23:43:58.203Z,4.80
2022-09-01T23:46:27.375Z,4.03
2022-09-01T23:48:55.933Z,5.00
2022-09-01T23:51:25.350Z,5.15
2022-09-01T23:53:55.112Z,4.65
2022-09-01T23:56:24.083Z,4.70
2022-09-01T23:58:52.624Z,4.53
